createdAt,value
2022-10-28T00:01:24.437Z,101591.78
2022-10-28T00:04:00.878Z,101593.13
2022-10-28T00:06:35.305Z,101597.53
2022-10-28T00:09:05.623Z,101596.84
2022-10-28T00:11:35.609Z,101591.69
2022-10-28T00:14:06.944Z,101592.53
2022-10-28T00:16:37.687Z,101590.31
2022-10-28T00:19:08.226Z,101605.56
2022-10-28T00:21:38.245Z,101589.81
2022-10-28T00:24:07.581Z,101596.84
2022-10-28T00:26:37.376Z,101603.00
2022-10-28T00:29:15.958Z,101603.22
2022-10-28T00:31:43.992Z,101595.88
2022-10-28T00:34:21.375Z,101596.09
2022-10-28T00:36:49.294Z,101593.13
2022-10-28T00:39:23.672Z,101593.88
2022-10-28T00:41:58.977Z,101588.63
2022-10-28T00:44:58.779Z,101590.38
2022-10-28T00:48:00.934Z,101586.25
2022-10-28T00:50:48.886Z,101582.25
2022-10-28T00:53:28.411Z,101585.19
2022-10-28T00:55:57.005Z,101594.44
2022-10-28T00:58:26.383Z,101584.97
2022-10-28T01:00:54.095Z,101584.44
2022-10-28T01:03:21.760Z,101584.97
2022-10-28T01:05:50.835Z,101571.66
2022-10-28T01:08:18.547Z,101573.34
2022-10-28T01:11:13.578Z,101576.16
2022-10-28T01:14:18.121Z,101574.47
2022-10-28T01:17:08.895Z,101574.19
2022-10-28T01:20:27.042Z,101568.94
2022-10-28T01:23:23.206Z,101550.34
2022-10-28T01:26:16.981Z,101552.47
2022-10-28T01:29:22.236Z,101551.31
2022-10-28T01:32:16.614Z,101548.78
2022-10-28T01:35:06.750Z,101548.50
2022-10-28T01:37:58.105Z,101542.03
2022-10-28T01:40:40.350Z,101543.50
2022-10-28T01:44:20.307Z,101545.44
2022-10-28T01:47:09.869Z,101543.13
2022-10-28T01:50:03.026Z,101546.94
2022-10-28T01:52:32.880Z,101546.59
2022-10-28T01:55:16.230Z,101548.13
2022-10-28T01:57:45.460Z,101545.50
2022-10-28T02:00:13.583Z,101541.09
2022-10-28T02:02:42.627Z,101533.34
2022-10-28T02:05:42.132Z,101540.38
2022-10-28T02:08:17.794Z,101537.84
2022-10-28T02:11:30.810Z,101532.41
2022-10-28T02:14:12.526Z,101529.91
2022-10-28T02:16:51.333Z,101523.72
2022-10-28T02:19:49.081Z,101528.84
2022-10-28T02:22:41.109Z,101522.47
2022-10-28T02:25:26.231Z,101521.22
2022-10-28T02:28:02.022Z,101517.19
2022-10-28T02:31:02.239Z,101518.78
2022-10-28T02:33:35.775Z,101514.69
2022-10-28T02:36:16.100Z,101522.13
2022-10-28T02:38:52.663Z,101525.53
2022-10-28T02:42:10.546Z,101525.38
2022-10-28T02:44:45.257Z,101524.31
2022-10-28T02:47:19.850Z,101520.50
2022-10-28T02:49:56.343Z,101522.84
2022-10-28T02:52:28.161Z,101525.81
2022-10-28T02:54:59.949Z,101525.19
2022-10-28T02:57:40.438Z,101528.50
2022-10-28T03:00:15.093Z,101528.75
2022-10-28T03:02:42.196Z,101525.72
2022-10-28T03:05:09.540Z,101536.09
2022-10-28T03:07:36.547Z,101547.41
2022-10-28T03:10:04.012Z,101536.19
2022-10-28T03:12:31.034Z,101522.78
2022-10-28T03:14:57.989Z,101520.06
2022-10-28T03:17:24.894Z,101511.78
2022-10-28T03:19:51.892Z,101511.25
2022-10-28T03:22:18.797Z,101527.47
2022-10-28T03:24:45.709Z,101529.50
2022-10-28T03:27:12.703Z,101530.22
2022-10-28T03:29:43.440Z,101520.44
2022-10-28T03:32:13.189Z,101528.00
2022-10-28T03:34:40.192Z,101518.31
2022-10-28T03:37:07.433Z,101516.59
2022-10-28T03:39:34.433Z,101520.16
2022-10-28T03:42:01.408Z,101523.44
2022-10-28T03:44:28.379Z,101522.72
2022-10-28T03:46:55.338Z,101519.22
2022-10-28T03:49:22.313Z,101529.28
2022-10-28T03:51:49.514Z,101530.19
2022-10-28T03:54:17.733Z,101527.47
2022-10-28T03:56:44.765Z,101525.03
2022-10-28T03:59:13.263Z,101530.63
2022-10-28T04:01:42.848Z,101533.16
2022-10-28T04:04:09.843Z,101540.38
2022-10-28T04:06:36.772Z,101532.97
2022-10-28T04:09:03.746Z,101529.50
2022-10-28T04:11:31.793Z,101526.72
2022-10-28T04:13:58.806Z,101521.13
2022-10-28T04:16:25.889Z,101522.34
2022-10-28T04:18:52.850Z,101518.13
2022-10-28T04:21:19.981Z,101507.16
2022-10-28T04:23:46.963Z,101515.53
2022-10-28T04:26:15.370Z,101512.28
2022-10-28T04:28:42.456Z,101509.06
2022-10-28T04:31:14.469Z,101515.75
2022-10-28T04:33:42.862Z,101518.69
2022-10-28T04:36:09.850Z,101508.94
2022-10-28T04:38:36.916Z,101509.47
2022-10-28T04:41:03.977Z,101513.78
2022-10-28T04:43:30.909Z,101505.78
2022-10-28T04:45:58.139Z,101502.97
2022-10-28T04:48:25.109Z,101495.81
2022-10-28T04:50:53.351Z,101499.53
2022-10-28T04:53:20.306Z,101493.81
2022-10-28T04:55:47.302Z,101489.81
2022-10-28T04:58:14.506Z,101492.41
2022-10-28T05:00:41.450Z,101491.63
2022-10-28T05:03:08.403Z,101484.81
2022-10-28T05:05:35.654Z,101481.50
2022-10-28T05:08:02.661Z,101483.47
2022-10-28T05:10:30.302Z,101494.59
2022-10-28T05:12:57.285Z,101489.25
2022-10-28T05:15:26.474Z,101496.28
2022-10-28T05:17:53.975Z,101487.88
2022-10-28T05:20:21.441Z,101485.78
2022-10-28T05:22:54.923Z,101488.41
2022-10-28T05:25:23.616Z,101482.44
2022-10-28T05:27:51.204Z,101480.75
2022-10-28T05:30:18.912Z,101487.00
2022-10-28T05:32:47.480Z,101473.84
2022-10-28T05:35:16.296Z,101475.78
2022-10-28T05:37:43.935Z,101473.28
2022-10-28T05:40:12.086Z,101469.28
2022-10-28T05:42:43.329Z,101461.88
2022-10-28T05:45:11.956Z,101479.09
2022-10-28T05:47:48.842Z,101472.09
2022-10-28T05:50:18.960Z,101477.22
2022-10-28T05:52:55.613Z,101472.72
2022-10-28T05:55:30.574Z,101468.28
2022-10-28T05:57:57.981Z,101480.06
2022-10-28T06:00:26.567Z,101478.81
2022-10-28T06:02:53.844Z,101480.56
2022-10-28T06:05:21.279Z,101473.78
2022-10-28T06:07:48.274Z,101471.00
2022-10-28T06:10:15.235Z,101474.16
2022-10-28T06:12:40.682Z,101473.69
2022-10-28T06:15:08.380Z,101478.53
2022-10-28T06:17:35.554Z,101474.72
2022-10-28T06:20:04.349Z,101471.38
2022-10-28T06:22:31.439Z,101470.22
2022-10-28T06:24:58.458Z,101464.94
2022-10-28T06:27:25.538Z,101465.84
2022-10-28T06:29:52.585Z,101477.38
2022-10-28T06:32:33.912Z,101479.06
2022-10-28T06:35:00.871Z,101475.41
2022-10-28T06:37:28.015Z,101473.56
2022-10-28T06:39:57.257Z,101469.13
2022-10-28T06:42:24.491Z,101471.56
2022-10-28T06:44:53.171Z,101472.28
2022-10-28T06:47:27.143Z,101469.28
2022-10-28T06:49:54.628Z,101472.94
2022-10-28T06:52:36.835Z,101459.00
2022-10-28T06:55:04.585Z,101456.69
2022-10-28T06:57:34.397Z,101460.09
2022-10-28T07:00:29.029Z,101454.34
2022-10-28T07:02:57.146Z,101447.31
2022-10-28T07:05:27.619Z,101447.78
2022-10-28T07:08:04.001Z,101460.09
2022-10-28T07:10:31.084Z,101469.50
2022-10-28T07:12:58.520Z,101467.44
2022-10-28T07:15:31.407Z,101468.63
2022-10-28T07:18:02.641Z,101473.88
2022-10-28T07:20:31.921Z,101484.69
2022-10-28T07:23:02.204Z,101471.00
2022-10-28T07:25:31.683Z,101480.66
2022-10-28T07:27:59.376Z,101468.03
2022-10-28T07:30:33.451Z,101469.50
2022-10-28T07:33:01.231Z,101468.97
2022-10-28T07:35:28.965Z,101465.94
2022-10-28T07:37:56.215Z,101467.59
2022-10-28T07:40:24.519Z,101474.44
2022-10-28T07:42:51.846Z,101486.97
2022-10-28T07:45:19.139Z,101488.63
2022-10-28T07:47:46.210Z,101477.94
2022-10-28T07:50:13.903Z,101483.72
2022-10-28T07:52:43.273Z,101465.59
2022-10-28T07:55:14.110Z,101470.22
2022-10-28T07:57:41.307Z,101471.47
2022-10-28T08:00:09.341Z,101478.41
2022-10-28T08:02:36.315Z,101488.13
2022-10-28T08:05:03.818Z,101482.50
2022-10-28T08:07:34.795Z,101482.19
2022-10-28T08:10:05.936Z,101480.03
2022-10-28T08:12:32.876Z,101466.44
2022-10-28T08:14:59.787Z,101479.41
2022-10-28T08:17:29.019Z,101477.25
2022-10-28T08:19:56.123Z,101473.75
2022-10-28T08:22:23.660Z,101484.19
2022-10-28T08:24:50.603Z,101484.50
2022-10-28T08:27:17.562Z,101496.75
2022-10-28T08:29:44.728Z,101526.88
2022-10-28T08:32:11.743Z,101545.69
2022-10-28T08:34:42.454Z,101542.38
2022-10-28T08:37:10.989Z,101524.34
2022-10-28T08:39:38.290Z,101514.78
2022-10-28T08:42:46.748Z,101525.88
2022-10-28T08:45:21.659Z,101528.53
2022-10-28T08:48:24.461Z,101533.91
2022-10-28T08:51:00.478Z,101533.91
2022-10-28T08:53:41.387Z,101529.59
2022-10-28T08:56:22.369Z,101515.00
2022-10-28T08:58:54.650Z,101514.38
2022-10-28T09:01:48.688Z,101500.56
2022-10-28T09:04:37.789Z,101497.56
2022-10-28T09:07:08.872Z,101483.38
2022-10-28T09:09:35.926Z,101492.59
2022-10-28T09:12:50.399Z,101494.94
2022-10-28T09:15:45.442Z,101490.38
2022-10-28T09:18:45.229Z,101484.53
2022-10-28T09:22:07.811Z,101478.28
2022-10-28T09:24:53.761Z,101476.88
2022-10-28T09:28:14.450Z,101459.47
2022-10-28T09:31:18.471Z,101456.53
2022-10-28T09:33:58.829Z,101460.44
2022-10-28T09:36:36.911Z,101453.19
2022-10-28T09:39:07.316Z,101455.13
2022-10-28T09:41:38.936Z,101449.09
2022-10-28T09:44:36.475Z,101449.97
2022-10-28T09:47:14.983Z,101448.53
2022-10-28T09:49:43.345Z,101440.44
2022-10-28T09:52:25.198Z,101450.34
2022-10-28T09:55:02.298Z,101449.22
2022-10-28T09:57:31.966Z,101443.72
2022-10-28T10:00:00.425Z,101438.22
2022-10-28T10:02:33.877Z,101442.28
2022-10-28T10:05:02.925Z,101437.09
2022-10-28T10:07:57.861Z,101445.50
2022-10-28T10:10:58.222Z,101442.34
2022-10-28T10:13:42.132Z,101441.66
2022-10-28T10:16:34.929Z,101436.34
2022-10-28T10:19:06.175Z,101427.13
2022-10-28T10:21:50.029Z,101407.78
2022-10-28T10:24:31.254Z,101408.00
2022-10-28T10:27:10.522Z,101407.53
2022-10-28T10:29:47.647Z,101403.59
2022-10-28T10:32:27.096Z,101406.44
2022-10-28T10:35:30.624Z,101405.25
2022-10-28T10:38:05.770Z,101412.75
2022-10-28T10:40:54.777Z,101406.66
2022-10-28T10:43:35.501Z,101405.94
2022-10-28T10:46:16.428Z,101400.25
2022-10-28T10:48:44.606Z,101401.00
2022-10-28T10:51:32.010Z,101393.53
2022-10-28T10:54:02.469Z,101390.16
2022-10-28T10:56:33.845Z,101391.16
2022-10-28T10:59:05.955Z,101396.47
2022-10-28T11:01:40.004Z,101389.81
2022-10-28T11:04:15.892Z,101388.50
2022-10-28T11:06:55.231Z,101386.31
2022-10-28T11:09:45.277Z,101379.06
2022-10-28T11:12:35.949Z,101373.22
2022-10-28T11:15:26.910Z,101371.22
2022-10-28T11:18:20.875Z,101367.28
2022-10-28T11:21:20.610Z,101365.94
2022-10-28T11:24:05.498Z,101365.25
2022-10-28T11:27:19.764Z,101371.41
2022-10-28T11:29:49.989Z,101364.34
2022-10-28T11:33:01.774Z,101372.16
2022-10-28T11:36:19.533Z,101368.34
2022-10-28T11:39:42.635Z,101369.72
2022-10-28T11:42:34.456Z,101371.53
2022-10-28T11:45:58.847Z,101363.22
2022-10-28T11:49:29.834Z,101359.13
2022-10-28T11:53:17.208Z,101360.22
2022-10-28T11:56:25.841Z,101345.44
2022-10-28T11:59:33.894Z,101341.41
2022-10-28T12:02:30.628Z,101341.66
2022-10-28T12:05:39.230Z,101348.78
2022-10-28T12:12:13.140Z,101347.66
2022-10-28T12:15:01.369Z,101346.50
2022-10-28T12:18:02.038Z,101352.41
2022-10-28T12:21:20.667Z,101354.81
2022-10-28T12:23:49.516Z,101341.22
2022-10-28T12:26:20.232Z,101338.00
2022-10-28T12:29:16.190Z,101329.59
2022-10-28T12:31:57.122Z,101327.69
2022-10-28T12:34:51.083Z,101321.06
2022-10-28T12:37:34.910Z,101318.31
2022-10-28T12:40:31.717Z,101324.91
2022-10-28T12:43:34.168Z,101308.34
2022-10-28T12:46:02.242Z,101308.16
2022-10-28T12:49:06.786Z,101308.44
2022-10-28T12:51:40.984Z,101315.53
2022-10-28T12:54:40.885Z,101304.47
2022-10-28T12:57:17.013Z,101304.31
2022-10-28T13:00:13.499Z,101302.00
2022-10-28T13:02:57.330Z,101307.16
2022-10-28T13:05:58.738Z,101303.66
2022-10-28T13:12:25.142Z,101287.81
2022-10-28T13:15:25.826Z,101288.31
2022-10-28T13:18:51.714Z,101286.59
2022-10-28T13:21:44.005Z,101283.94
2022-10-28T13:24:35.769Z,101269.94
2022-10-28T13:27:16.483Z,101274.47
2022-10-28T13:29:51.279Z,101274.47
2022-10-28T13:32:40.770Z,101269.94
2022-10-28T13:35:25.228Z,101268.78
2022-10-28T13:38:01.548Z,101274.03
2022-10-28T13:40:32.047Z,101269.97
2022-10-28T13:43:12.606Z,101266.56
2022-10-28T13:45:57.461Z,101268.31
2022-10-28T13:48:43.149Z,101259.41
2022-10-28T13:51:13.109Z,101260.84
2022-10-28T13:53:56.884Z,101259.19
2022-10-28T13:56:46.588Z,101256.22
2022-10-28T13:59:30.187Z,101259.91
2022-10-28T14:02:33.641Z,101261.94
2022-10-28T14:05:19.583Z,101258.06
2022-10-28T14:08:21.040Z,101257.09
2022-10-28T14:11:33.456Z,101256.69
2022-10-28T14:14:04.152Z,101257.31
2022-10-28T14:16:43.000Z,101264.09
2022-10-28T14:19:09.826Z,101253.44
2022-10-28T14:22:06.648Z,101260.13
2022-10-28T14:24:45.480Z,101248.84
2022-10-28T14:27:44.036Z,101257.16
2022-10-28T14:30:22.707Z,101255.44
2022-10-28T14:32:49.565Z,101249.41
2022-10-28T14:35:33.187Z,101250.94
2022-10-28T14:39:08.064Z,101252.84
2022-10-28T14:42:19.741Z,101251.78
2022-10-28T14:45:20.974Z,101251.88
2022-10-28T14:48:20.290Z,101252.91
2022-10-28T14:50:52.413Z,101249.97
2022-10-28T14:53:33.672Z,101253.63
2022-10-28T14:56:29.161Z,101253.03
2022-10-28T14:59:14.000Z,101245.72
2022-10-28T15:02:21.754Z,101254.31
2022-10-28T15:05:29.785Z,101249.09
2022-10-28T15:08:04.062Z,101249.53
2022-10-28T15:10:33.948Z,101242.94
2022-10-28T15:13:04.801Z,101245.25
2022-10-28T15:15:35.101Z,101238.28
2022-10-28T15:18:02.604Z,101235.50
2022-10-28T15:20:37.918Z,101241.00
2022-10-28T15:23:19.126Z,101232.53
2022-10-28T15:26:12.215Z,101230.91
2022-10-28T15:28:46.476Z,101240.34
2022-10-28T15:31:17.395Z,101242.03
2022-10-28T15:33:44.365Z,101240.53
2022-10-28T15:36:27.636Z,101237.66
2022-10-28T15:39:17.836Z,101235.16
2022-10-28T15:42:30.901Z,101230.03
2022-10-28T15:45:01.789Z,101230.50
2022-10-28T15:47:36.850Z,101223.38
2022-10-28T15:50:15.012Z,101229.50
2022-10-28T15:52:57.150Z,101233.63
2022-10-28T15:55:35.894Z,101226.81
2022-10-28T15:58:19.419Z,101226.34
2022-10-28T16:01:10.079Z,101228.16
2022-10-28T16:03:50.108Z,101229.31
2022-10-28T16:06:40.192Z,101224.00
2022-10-28T16:09:41.552Z,101224.00
2022-10-28T16:12:36.774Z,101225.13
2022-10-28T16:18:28.696Z,101220.97
2022-10-28T16:20:58.318Z,101220.13
2022-10-28T16:23:45.791Z,101216.56
2022-10-28T16:26:20.078Z,101217.53
2022-10-28T16:29:12.276Z,101217.16
2022-10-28T16:32:57.067Z,101218.84
2022-10-28T16:35:25.192Z,101221.47
2022-10-28T16:37:55.790Z,101222.75
2022-10-28T16:43:27.057Z,101227.81
2022-10-28T16:46:08.523Z,101229.50
2022-10-28T16:48:35.969Z,101233.13
2022-10-28T16:51:18.080Z,101235.38
2022-10-28T16:53:53.035Z,101231.59
2022-10-28T16:56:23.473Z,101224.47
2022-10-28T16:58:55.091Z,101225.31
2022-10-28T17:01:23.428Z,101229.91
2022-10-28T17:03:50.993Z,101232.91
2022-10-28T17:06:21.359Z,101227.22
2022-10-28T17:09:02.544Z,101225.72
2022-10-28T17:11:33.988Z,101225.44
2022-10-28T17:14:01.302Z,101223.69
2022-10-28T17:16:31.891Z,101220.91
2022-10-28T17:18:59.448Z,101223.69
2022-10-28T17:21:26.888Z,101224.06
2022-10-28T17:23:53.997Z,101224.00
2022-10-28T17:26:21.442Z,101221.88
2022-10-28T17:28:53.064Z,101227.72
2022-10-28T17:31:25.076Z,101225.66
2022-10-28T17:33:58.403Z,101235.69
2022-10-28T17:36:25.529Z,101233.84
2022-10-28T17:38:52.474Z,101236.16
2022-10-28T17:41:19.760Z,101229.16
2022-10-28T17:43:46.928Z,101226.72
2022-10-28T17:46:14.110Z,101234.50
2022-10-28T17:48:41.240Z,101235.44
2022-10-28T17:51:08.547Z,101232.59
2022-10-28T17:53:35.561Z,101228.13
2022-10-28T17:56:06.815Z,101226.53
2022-10-28T17:58:34.188Z,101230.06
2022-10-28T18:01:10.342Z,101227.13
2022-10-28T18:03:38.896Z,101223.66
2022-10-28T18:06:14.718Z,101229.63
2022-10-28T18:08:44.302Z,101240.53
2022-10-28T18:11:15.011Z,101240.38
2022-10-28T18:13:46.071Z,101235.69
2022-10-28T18:16:24.222Z,101229.31
2022-10-28T18:18:53.320Z,101235.19
2022-10-28T18:21:21.473Z,101236.53
2022-10-28T18:23:53.490Z,101235.81
2022-10-28T18:26:21.395Z,101236.41
2022-10-28T18:28:49.171Z,101230.47
2022-10-28T18:31:19.976Z,101237.25
2022-10-28T18:33:47.959Z,101232.94
2022-10-28T18:36:24.385Z,101228.66
2022-10-28T18:38:52.330Z,101232.03
2022-10-28T18:41:26.889Z,101226.84
2022-10-28T18:44:04.355Z,101227.13
2022-10-28T18:46:37.752Z,101227.97
2022-10-28T18:49:05.957Z,101228.19
2022-10-28T18:51:34.242Z,101228.25
2022-10-28T18:54:01.568Z,101231.56
2022-10-28T18:56:29.845Z,101236.44
2022-10-28T18:59:01.497Z,101234.50
2022-10-28T19:01:29.965Z,101230.69
2022-10-28T19:04:05.114Z,101227.66
2022-10-28T19:06:33.871Z,101226.88
2022-10-28T19:09:04.262Z,101227.47
2022-10-28T19:11:33.754Z,101226.25
2022-10-28T19:14:05.259Z,101228.88
2022-10-28T19:16:34.792Z,101231.22
2022-10-28T19:19:07.038Z,101230.63
2022-10-28T19:21:34.522Z,101227.88
2022-10-28T19:24:02.221Z,101228.84
2022-10-28T19:26:31.919Z,101226.34
2022-10-28T19:28:59.230Z,101224.41
2022-10-28T19:31:27.584Z,101225.09
2022-10-28T19:33:55.282Z,101225.81
2022-10-28T19:36:26.504Z,101224.66
2022-10-28T19:38:55.485Z,101229.94
2022-10-28T19:41:29.573Z,101231.09
2022-10-28T19:44:00.617Z,101236.91
2022-10-28T19:46:34.828Z,101236.38
2022-10-28T19:49:53.122Z,101249.41
2022-10-28T19:52:20.076Z,101245.97
2022-10-28T19:54:49.408Z,101246.75
2022-10-28T19:57:17.090Z,101252.22
2022-10-28T19:59:56.020Z,101245.97
2022-10-28T20:02:26.872Z,101249.72
2022-10-28T20:05:04.263Z,101249.03
2022-10-28T20:07:31.664Z,101260.28
2022-10-28T20:12:34.372Z,101268.06
2022-10-28T20:15:13.613Z,101261.63
2022-10-28T20:17:44.556Z,101259.16
2022-10-28T20:20:17.544Z,101258.34
2022-10-28T20:22:52.550Z,101254.03
2022-10-28T20:25:22.779Z,101263.91
2022-10-28T20:27:50.623Z,101268.34
2022-10-28T20:30:17.786Z,101274.72
2022-10-28T20:32:44.778Z,101273.63
2022-10-28T20:35:11.971Z,101278.03
2022-10-28T20:37:42.093Z,101280.97
2022-10-28T20:40:10.159Z,101274.59
2022-10-28T20:42:45.448Z,101276.00
2022-10-28T20:45:12.362Z,101267.63
2022-10-28T20:47:39.288Z,101266.41
2022-10-28T20:50:07.617Z,101269.44
2022-10-28T20:52:34.643Z,101267.50
2022-10-28T20:55:01.628Z,101270.56
2022-10-28T20:57:28.564Z,101275.69
2022-10-28T20:59:55.557Z,101273.75
2022-10-28T21:02:22.608Z,101266.25
2022-10-28T21:04:49.892Z,101269.19
2022-10-28T21:07:16.824Z,101277.66
2022-10-28T21:09:43.818Z,101278.31
2022-10-28T21:12:10.815Z,101271.09
2022-10-28T21:14:42.698Z,101274.72
2022-10-28T21:17:10.043Z,101276.41
2022-10-28T21:19:37.871Z,101284.75
2022-10-28T21:22:05.157Z,101285.88
2022-10-28T21:24:32.502Z,101279.72
2022-10-28T21:26:59.689Z,101291.38
2022-10-28T21:29:27.001Z,101280.78
2022-10-28T21:31:54.305Z,101282.31
2022-10-28T21:34:21.389Z,101277.00
2022-10-28T21:36:48.476Z,101286.56
2022-10-28T21:39:21.982Z,101272.13
2022-10-28T21:41:49.155Z,101275.16
2022-10-28T21:44:16.213Z,101266.56
2022-10-28T21:46:43.411Z,101267.25
2022-10-28T21:49:10.323Z,101272.91
2022-10-28T21:51:37.292Z,101274.00
2022-10-28T21:54:04.624Z,101271.22
2022-10-28T21:56:31.549Z,101270.97
2022-10-28T21:58:58.879Z,101271.75
2022-10-28T22:01:26.027Z,101270.56
2022-10-28T22:03:55.670Z,101270.22
2022-10-28T22:06:23.173Z,101273.44
2022-10-28T22:08:54.044Z,101268.13
2022-10-28T22:11:23.962Z,101275.31
2022-10-28T22:14:00.513Z,101273.09
2022-10-28T22:16:30.102Z,101278.06
2022-10-28T22:19:00.219Z,101275.00
2022-10-28T22:21:31.856Z,101281.94
2022-10-28T22:23:59.298Z,101281.34
2022-10-28T22:26:30.204Z,101285.53
2022-10-28T22:28:57.572Z,101285.53
2022-10-28T22:31:32.523Z,101280.81
2022-10-28T22:34:00.389Z,101282.72
2022-10-28T22:36:29.720Z,101276.38
2022-10-28T22:38:57.339Z,101279.34
2022-10-28T22:41:30.813Z,101283.50
2022-10-28T22:44:01.224Z,101277.28
2022-10-28T22:46:33.387Z,101274.84
2022-10-28T22:49:00.488Z,101288.72
2022-10-28T22:51:27.493Z,101280.03
2022-10-28T22:53:54.527Z,101286.94
2022-10-28T22:56:25.038Z,101280.31
2022-10-28T22:58:58.974Z,101281.53
2022-10-28T23:01:29.052Z,101290.31
2022-10-28T23:03:56.790Z,101306.53
2022-10-28T23:06:26.893Z,101315.13
2022-10-28T23:08:54.869Z,101318.88
2022-10-28T23:11:22.784Z,101317.16
2022-10-28T23:13:54.781Z,101316.44
2022-10-28T23:16:23.726Z,101325.59
2022-10-28T23:18:52.898Z,101323.66
2022-10-28T23:21:24.461Z,101333.63
2022-10-28T23:23:57.689Z,101335.44
2022-10-28T23:26:26.915Z,101320.91
2022-10-28T23:28:59.821Z,101311.38
2022-10-28T23:31:28.383Z,101314.09
2022-10-28T23:33:56.442Z,101322.56
2022-10-28T23:36:23.696Z,101323.13
2022-10-28T23:38:50.786Z,101325.94
2022-10-28T23:41:19.351Z,101346.94
2022-10-28T23:43:49.388Z,101345.91
2022-10-28T23:46:18.501Z,101325.50
2022-10-28T23:48:45.516Z,101326.50
2022-10-28T23:51:14.709Z,101325.66
2022-10-28T23:53:41.653Z,101327.06
2022-10-28T23:56:09.027Z,101320.19
2022-10-28T23:58:36.056Z,101322.44
